createdAt,value
2022-08-28T00:00:21.368Z,7.88
2022-08-28T00:00:45.397Z,8.40
2022-08-28T00:01:08.459Z,8.20
2022-08-28T00:01:31.472Z,7.95
2022-08-28T00:01:54.640Z,8.55
2022-08-28T00:02:17.557Z,8.63
2022-08-28T00:02:40.654Z,8.43
2022-08-28T00:03:06.488Z,8.50
2022-08-28T00:03:30.351Z,8.48
2022-08-28T00:03:53.335Z,8.13
2022-08-28T00:04:16.213Z,7.90
2022-08-28T00:04:39.076Z,8.00
2022-08-28T00:05:02.021Z,8.30
2022-08-28T00:05:26.227Z,8.27
2022-08-28T00:05:49.113Z,8.48
2022-08-28T00:06:12.723Z,8.40
2022-08-28T00:06:38.480Z,8.43
2022-08-28T00:07:01.516Z,8.50
2022-08-28T00:07:25.644Z,8.68
2022-08-28T00:07:48.529Z,8.68
2022-08-28T00:08:12.384Z,8.77
2022-08-28T00:08:35.721Z,8.50
2022-08-28T00:08:59.466Z,8.70
2022-08-28T00:09:22.492Z,8.32
2022-08-28T00:09:45.371Z,8.80
2022-08-28T00:10:09.679Z,8.38
2022-08-28T00:10:32.566Z,8.18
2022-08-28T00:10:57.045Z,8.50
2022-08-28T00:11:21.269Z,8.60
2022-08-28T00:11:44.173Z,8.60
2022-08-28T00:12:07.914Z,8.30
2022-08-28T00:12:31.885Z,8.50
2022-08-28T00:12:58.477Z,8.40
2022-08-28T00:13:22.626Z,7.70
2022-08-28T00:13:48.709Z,8.13
2022-08-28T00:14:11.715Z,8.23
2022-08-28T00:14:35.124Z,8.50
2022-08-28T00:14:57.909Z,8.73
2022-08-28T00:15:22.444Z,8.68
2022-08-28T00:15:45.845Z,8.85
2022-08-28T00:16:09.698Z,9.00
2022-08-28T00:16:33.768Z,9.10
2022-08-28T00:16:57.206Z,9.40
2022-08-28T00:17:20.164Z,9.20
2022-08-28T00:17:43.349Z,8.82
2022-08-28T00:18:07.187Z,8.30
2022-08-28T00:18:30.237Z,8.65
2022-08-28T00:18:53.105Z,8.40
2022-08-28T00:19:16.038Z,8.90
2022-08-28T00:19:39.003Z,8.75
2022-08-28T00:20:01.913Z,8.63
2022-08-28T00:20:25.092Z,9.07
2022-08-28T00:20:47.968Z,9.13
2022-08-28T00:21:10.848Z,8.57
2022-08-28T00:21:34.316Z,8.48
2022-08-28T00:21:57.370Z,8.63
2022-08-28T00:22:20.235Z,8.38
2022-08-28T00:22:43.103Z,8.13
2022-08-28T00:23:06.613Z,8.65
2022-08-28T00:23:38.794Z,8.40
2022-08-28T00:24:06.345Z,8.48
2022-08-28T00:24:29.301Z,8.90
2022-08-28T00:24:52.080Z,8.85
2022-08-28T00:25:19.501Z,8.20
2022-08-28T00:25:42.381Z,8.02
2022-08-28T00:26:06.840Z,8.20
2022-08-28T00:26:51.080Z,8.48
2022-08-28T00:27:33.021Z,9.00
2022-08-28T00:28:00.111Z,8.50
2022-08-28T00:28:24.488Z,8.63
2022-08-28T00:28:48.171Z,8.48
2022-08-28T00:29:11.271Z,8.20
2022-08-28T00:29:34.057Z,8.20
2022-08-28T00:29:57.047Z,8.57
2022-08-28T00:30:21.197Z,8.32
2022-08-28T00:30:48.551Z,7.90
2022-08-28T00:31:13.484Z,8.07
2022-08-28T00:31:39.780Z,8.70
2022-08-28T00:32:03.618Z,9.00
2022-08-28T00:32:27.178Z,8.70
2022-08-28T00:32:50.059Z,8.77
2022-08-28T00:33:15.601Z,8.60
2022-08-28T00:33:38.456Z,8.45
2022-08-28T00:34:03.158Z,8.30
2022-08-28T00:34:33.666Z,8.40
2022-08-28T00:34:56.826Z,8.52
2022-08-28T00:35:20.211Z,8.48
2022-08-28T00:35:43.891Z,8.65
2022-08-28T00:36:07.141Z,8.57
2022-08-28T00:36:30.628Z,8.02
2022-08-28T00:36:53.555Z,8.85
2022-08-28T00:37:16.556Z,9.18
2022-08-28T00:37:40.436Z,9.27
2022-08-28T00:38:03.460Z,8.43
2022-08-28T00:38:27.430Z,8.55
2022-08-28T00:38:50.812Z,9.52
2022-08-28T00:39:13.920Z,9.75
2022-08-28T00:39:39.260Z,8.77
2022-08-28T00:40:04.017Z,8.80
2022-08-28T00:40:28.637Z,9.35
2022-08-28T00:40:56.725Z,8.77
2022-08-28T00:41:24.997Z,9.35
2022-08-28T00:41:52.530Z,9.18
2022-08-28T00:42:20.887Z,8.95
2022-08-28T00:42:43.785Z,9.10
2022-08-28T00:43:06.765Z,9.27
2022-08-28T00:43:36.216Z,9.15
2022-08-28T00:44:11.400Z,9.68
2022-08-28T00:44:34.463Z,8.75
2022-08-28T00:44:57.269Z,8.32
2022-08-28T00:45:20.464Z,8.65
2022-08-28T00:45:43.359Z,8.98
2022-08-28T00:46:09.565Z,8.82
2022-08-28T00:46:32.733Z,8.65
2022-08-28T00:46:59.428Z,8.85
2022-08-28T00:47:26.664Z,8.80
2022-08-28T00:47:49.719Z,8.80
2022-08-28T00:48:12.832Z,8.82
2022-08-28T00:48:35.900Z,8.93
2022-08-28T00:48:58.846Z,8.32
2022-08-28T00:49:23.401Z,9.00
2022-08-28T00:49:47.915Z,9.07
2022-08-28T00:50:13.307Z,8.75
2022-08-28T00:51:00.347Z,8.43
2022-08-28T00:51:41.918Z,8.60
2022-08-28T00:52:05.993Z,8.40
2022-08-28T00:52:29.319Z,8.40
2022-08-28T00:52:55.737Z,8.35
2022-08-28T00:53:18.816Z,8.20
2022-08-28T00:53:41.921Z,8.63
2022-08-28T00:54:07.750Z,8.82
2022-08-28T00:54:34.133Z,8.95
2022-08-28T00:54:59.968Z,9.27
2022-08-28T00:55:24.252Z,9.50
2022-08-28T00:55:47.192Z,9.05
2022-08-28T00:56:13.222Z,9.25
2022-08-28T00:56:38.560Z,8.93
2022-08-28T00:57:01.525Z,9.32
2022-08-28T00:57:27.428Z,9.18
2022-08-28T00:57:52.208Z,9.15
2022-08-28T00:58:15.306Z,8.85
2022-08-28T00:58:38.364Z,9.00
2022-08-28T00:59:04.210Z,9.25
2022-08-28T00:59:27.255Z,9.32
2022-08-28T00:59:50.049Z,8.60
2022-08-28T01:00:16.849Z,9.00
2022-08-28T01:00:40.544Z,8.93
2022-08-28T01:01:03.820Z,8.98
2022-08-28T01:01:26.793Z,9.20
2022-08-28T01:01:49.844Z,9.52
2022-08-28T01:02:12.800Z,8.93
2022-08-28T01:02:35.785Z,8.95
2022-08-28T01:02:59.132Z,8.98
2022-08-28T01:03:25.140Z,9.02
2022-08-28T01:03:49.438Z,8.90
2022-08-28T01:04:16.939Z,8.88
2022-08-28T01:04:39.948Z,8.98
2022-08-28T01:05:02.918Z,9.35
2022-08-28T01:05:25.953Z,9.27
2022-08-28T01:05:49.966Z,9.40
2022-08-28T01:06:13.321Z,9.25
2022-08-28T01:06:36.417Z,9.13
2022-08-28T01:06:59.611Z,9.00
2022-08-28T01:07:23.421Z,9.18
2022-08-28T01:07:46.778Z,8.93
2022-08-28T01:08:10.328Z,9.07
2022-08-28T01:08:34.964Z,8.43
2022-08-28T01:08:59.018Z,9.00
2022-08-28T01:09:22.374Z,9.27
2022-08-28T01:09:46.316Z,9.30
2022-08-28T01:10:11.441Z,9.10
2022-08-28T01:10:35.116Z,9.10
2022-08-28T01:10:58.120Z,9.07
2022-08-28T01:11:20.933Z,8.50
2022-08-28T01:11:45.265Z,8.70
2022-08-28T01:12:10.123Z,8.95
2022-08-28T01:12:32.928Z,9.07
2022-08-28T01:12:56.541Z,9.13
2022-08-28T01:13:19.559Z,9.48
2022-08-28T01:13:44.230Z,9.13
2022-08-28T01:14:07.114Z,8.80
2022-08-28T01:14:30.586Z,9.43
2022-08-28T01:14:55.553Z,9.18
2022-08-28T01:15:20.817Z,9.18
2022-08-28T01:15:43.686Z,9.48
2022-08-28T01:16:07.030Z,9.25
2022-08-28T01:16:32.314Z,9.48
2022-08-28T01:16:57.105Z,9.45
2022-08-28T01:17:21.059Z,9.35
2022-08-28T01:17:45.409Z,8.88
2022-08-28T01:18:09.829Z,9.70
2022-08-28T01:18:33.013Z,9.55
2022-08-28T01:18:55.883Z,9.73
2022-08-28T01:19:21.338Z,9.85
2022-08-28T01:19:46.141Z,9.95
2022-08-28T01:20:11.368Z,9.93
2022-08-28T01:20:35.657Z,9.93
2022-08-28T01:21:01.916Z,9.85
2022-08-28T01:21:27.482Z,9.90
2022-08-28T01:21:53.808Z,9.68
2022-08-28T01:22:21.189Z,9.98
2022-08-28T01:22:48.388Z,9.88
2022-08-28T01:23:16.048Z,9.57
2022-08-28T01:23:53.368Z,10.23
2022-08-28T01:24:17.334Z,9.80
2022-08-28T01:24:40.391Z,10.10
2022-08-28T01:25:07.615Z,10.18
2022-08-28T01:25:32.539Z,9.77
2022-08-28T01:25:55.390Z,9.82
2022-08-28T01:26:18.389Z,10.13
2022-08-28T01:26:41.274Z,9.73
2022-08-28T01:27:04.382Z,10.20
2022-08-28T01:27:27.429Z,9.95
2022-08-28T01:27:51.879Z,9.60
2022-08-28T01:28:14.939Z,10.25
2022-08-28T01:28:38.296Z,9.88
2022-08-28T01:29:01.199Z,10.10
2022-08-28T01:29:24.144Z,9.95
2022-08-28T01:29:48.020Z,9.68
2022-08-28T01:30:12.222Z,9.70
2022-08-28T01:30:35.209Z,9.80
2022-08-28T01:30:58.044Z,9.68
2022-08-28T01:31:21.846Z,9.90
2022-08-28T01:31:44.923Z,9.75
2022-08-28T01:32:08.853Z,9.50
2022-08-28T01:32:35.223Z,9.98
2022-08-28T01:32:58.213Z,9.70
2022-08-28T01:33:28.098Z,9.68
2022-08-28T01:33:51.307Z,9.85
2022-08-28T01:34:14.373Z,9.63
2022-08-28T01:34:37.313Z,9.13
2022-08-28T01:35:00.219Z,9.25
2022-08-28T01:35:25.969Z,9.43
2022-08-28T01:35:49.019Z,9.77
2022-08-28T01:36:12.434Z,10.00
2022-08-28T01:36:35.318Z,9.40
2022-08-28T01:36:58.578Z,9.30
2022-08-28T01:37:26.338Z,9.52
2022-08-28T01:37:49.318Z,9.23
2022-08-28T01:38:12.337Z,9.25
2022-08-28T01:38:41.071Z,9.00
2022-08-28T01:39:07.663Z,9.32
2022-08-28T01:39:30.539Z,9.50
2022-08-28T01:39:54.497Z,9.30
2022-08-28T01:40:21.070Z,9.50
2022-08-28T01:40:45.973Z,9.77
2022-08-28T01:41:11.633Z,9.60
2022-08-28T01:41:35.900Z,9.18
2022-08-28T01:42:00.875Z,8.75
2022-08-28T01:42:24.262Z,9.27
2022-08-28T01:42:47.273Z,9.00
2022-08-28T01:43:12.880Z,9.13
2022-08-28T01:43:35.820Z,9.52
2022-08-28T01:43:59.598Z,9.50
2022-08-28T01:44:24.866Z,8.93
2022-08-28T01:44:47.957Z,9.10
2022-08-28T01:45:15.606Z,8.88
2022-08-28T01:45:38.781Z,8.80
2022-08-28T01:46:06.067Z,9.10
2022-08-28T01:46:29.701Z,9.30
2022-08-28T01:46:53.239Z,9.27
2022-08-28T01:47:16.215Z,9.43
2022-08-28T01:47:39.267Z,9.75
2022-08-28T01:48:02.236Z,9.60
2022-08-28T01:48:26.016Z,9.48
2022-08-28T01:48:49.484Z,9.50
2022-08-28T01:49:12.536Z,10.43
2022-08-28T01:49:35.451Z,10.38
2022-08-28T01:49:59.897Z,10.10
2022-08-28T01:50:22.673Z,10.43
2022-08-28T01:50:45.422Z,10.80
2022-08-28T01:51:08.537Z,10.40
2022-08-28T01:51:33.028Z,10.70
2022-08-28T01:51:58.621Z,10.70
2022-08-28T01:52:25.446Z,10.80
2022-08-28T01:52:49.611Z,11.20
2022-08-28T01:53:14.168Z,11.68
2022-08-28T01:53:37.713Z,11.60
2022-08-28T01:54:00.710Z,11.40
2022-08-28T01:54:26.735Z,12.30
2022-08-28T01:54:50.445Z,12.23
2022-08-28T01:55:15.885Z,12.13
2022-08-28T01:55:43.735Z,12.63
2022-08-28T01:56:08.833Z,12.77
2022-08-28T01:56:31.725Z,12.67
2022-08-28T01:56:54.727Z,12.13
2022-08-28T01:57:20.508Z,12.20
2022-08-28T01:57:46.454Z,12.60
2022-08-28T01:58:10.503Z,12.65
2022-08-28T01:58:38.483Z,12.68
2022-08-28T01:59:02.947Z,12.93
2022-08-28T01:59:25.857Z,12.50
2022-08-28T01:59:48.793Z,12.50
2022-08-28T02:00:14.028Z,12.60
2022-08-28T02:00:37.347Z,12.88
2022-08-28T02:01:00.157Z,13.57
2022-08-28T02:01:23.220Z,13.15
2022-08-28T02:01:46.179Z,12.40
2022-08-28T02:02:10.898Z,12.43
2022-08-28T02:02:33.896Z,13.00
2022-08-28T02:02:58.507Z,12.27
2022-08-28T02:03:22.136Z,12.77
2022-08-28T02:03:45.159Z,12.07
2022-08-28T02:04:08.146Z,12.35
2022-08-28T02:04:32.159Z,12.23
2022-08-28T02:04:55.344Z,12.50
2022-08-28T02:05:19.583Z,11.90
2022-08-28T02:05:42.354Z,12.18
2022-08-28T02:06:05.642Z,12.65
2022-08-28T02:06:28.559Z,12.90
2022-08-28T02:06:52.268Z,12.82
2022-08-28T02:07:17.035Z,12.10
2022-08-28T02:07:39.930Z,12.50
2022-08-28T02:08:03.609Z,12.23
2022-08-28T02:08:26.562Z,12.13
2022-08-28T02:08:51.409Z,12.30
2022-08-28T02:09:14.450Z,12.43
2022-08-28T02:09:39.409Z,12.45
2022-08-28T02:10:03.118Z,12.88
2022-08-28T02:10:26.363Z,12.98
2022-08-28T02:10:50.308Z,12.35
2022-08-28T02:11:13.504Z,12.25
2022-08-28T02:11:36.496Z,12.23
2022-08-28T02:12:04.735Z,12.38
2022-08-28T02:12:30.623Z,13.05
2022-08-28T02:12:53.491Z,12.85
2022-08-28T02:13:16.997Z,12.23
2022-08-28T02:13:40.883Z,12.50
2022-08-28T02:14:03.961Z,12.55
2022-08-28T02:14:26.873Z,11.98
2022-08-28T02:14:49.803Z,12.20
2022-08-28T02:15:13.254Z,12.30
2022-08-28T02:15:36.517Z,12.45
2022-08-28T02:15:59.564Z,13.00
2022-08-28T02:16:22.837Z,12.45
2022-08-28T02:16:48.527Z,12.60
2022-08-28T02:17:12.221Z,12.18
2022-08-28T02:17:35.187Z,12.23
2022-08-28T02:17:58.093Z,12.85
2022-08-28T02:18:21.088Z,12.27
2022-08-28T02:18:44.060Z,12.27
2022-08-28T02:19:06.886Z,12.13
2022-08-28T02:19:30.765Z,13.10
2022-08-28T02:19:53.685Z,12.00
2022-08-28T02:20:16.599Z,11.70
2022-08-28T02:20:39.454Z,11.88
2022-08-28T02:21:02.402Z,11.68
2022-08-28T02:21:25.349Z,11.70
2022-08-28T02:21:48.240Z,12.02
2022-08-28T02:22:13.690Z,12.15
2022-08-28T02:22:36.687Z,12.00
2022-08-28T02:23:02.386Z,12.27
2022-08-28T02:23:25.259Z,11.98
2022-08-28T02:23:48.090Z,11.70
2022-08-28T02:24:10.908Z,12.18
2022-08-28T02:24:33.897Z,12.65
2022-08-28T02:24:58.508Z,11.98
2022-08-28T02:25:21.673Z,12.05
2022-08-28T02:25:44.784Z,12.20
2022-08-28T02:26:07.712Z,12.68
2022-08-28T02:26:31.926Z,13.07
2022-08-28T02:26:54.817Z,11.88
2022-08-28T02:27:17.676Z,12.50
2022-08-28T02:27:40.992Z,12.15
2022-08-28T02:28:04.355Z,11.90
2022-08-28T02:28:27.258Z,12.25
2022-08-28T02:28:50.328Z,12.30
2022-08-28T02:29:13.412Z,11.85
2022-08-28T02:29:36.241Z,12.52
2022-08-28T02:29:59.609Z,12.57
2022-08-28T02:30:23.594Z,12.15
2022-08-28T02:30:47.023Z,11.68
2022-08-28T02:31:10.385Z,11.82
2022-08-28T02:31:33.637Z,12.45
2022-08-28T02:31:56.469Z,11.90
2022-08-28T02:32:20.033Z,12.07
2022-08-28T02:32:42.933Z,12.52
2022-08-28T02:33:07.508Z,12.65
2022-08-28T02:33:30.443Z,12.30
2022-08-28T02:33:53.274Z,12.15
2022-08-28T02:34:18.357Z,12.65
2022-08-28T02:34:43.762Z,12.02
2022-08-28T02:35:10.078Z,12.73
2022-08-28T02:35:35.072Z,12.85
2022-08-28T02:35:57.991Z,12.68
2022-08-28T02:36:20.857Z,12.65
2022-08-28T02:36:43.713Z,12.75
2022-08-28T02:37:09.067Z,12.93
2022-08-28T02:37:32.119Z,12.65
2022-08-28T02:37:55.576Z,12.77
2022-08-28T02:38:18.947Z,12.68
2022-08-28T02:38:42.763Z,12.75
2022-08-28T02:39:05.891Z,13.25
2022-08-28T02:39:28.932Z,13.10
2022-08-28T02:39:54.364Z,13.20
2022-08-28T02:40:20.739Z,12.77
2022-08-28T02:40:43.609Z,12.57
2022-08-28T02:41:06.679Z,12.73
2022-08-28T02:41:32.477Z,11.90
2022-08-28T02:41:55.505Z,11.77
2022-08-28T02:42:19.209Z,11.75
2022-08-28T02:42:42.644Z,11.82
2022-08-28T02:43:08.373Z,11.55
2022-08-28T02:43:31.348Z,11.73
2022-08-28T02:43:55.103Z,11.95
2022-08-28T02:44:17.825Z,11.77
2022-08-28T02:44:40.578Z,12.52
2022-08-28T02:45:03.592Z,12.45
2022-08-28T02:45:26.502Z,12.00
2022-08-28T02:45:49.681Z,12.32
2022-08-28T02:46:13.088Z,12.75
2022-08-28T02:46:36.185Z,12.52
2022-08-28T02:46:59.299Z,12.05
2022-08-28T02:47:22.229Z,12.25
2022-08-28T02:47:45.379Z,12.27
2022-08-28T02:48:11.931Z,12.55
2022-08-28T02:48:40.860Z,12.10
2022-08-28T02:49:03.730Z,12.18
2022-08-28T02:49:26.571Z,12.15
2022-08-28T02:49:59.450Z,12.45
2022-08-28T02:50:22.390Z,13.15
2022-08-28T02:50:46.294Z,12.65
2022-08-28T02:51:11.617Z,12.80
2022-08-28T02:51:35.577Z,12.90
2022-08-28T02:51:58.413Z,12.20
2022-08-28T02:52:22.713Z,12.70
2022-08-28T02:52:45.646Z,12.70
2022-08-28T02:53:08.461Z,12.90
2022-08-28T02:53:31.596Z,12.48
2022-08-28T02:53:54.501Z,12.15
2022-08-28T02:54:18.462Z,12.23
2022-08-28T02:54:46.427Z,13.20
2022-08-28T02:55:10.535Z,12.88
2022-08-28T02:55:35.030Z,13.70
2022-08-28T02:55:58.280Z,12.73
2022-08-28T02:56:21.133Z,12.75
2022-08-28T02:56:44.125Z,13.18
2022-08-28T02:57:08.361Z,13.38
2022-08-28T02:57:31.213Z,13.38
2022-08-28T02:57:54.780Z,13.68
2022-08-28T02:58:18.148Z,13.25
2022-08-28T02:58:40.934Z,12.90
2022-08-28T02:59:03.894Z,13.00
2022-08-28T02:59:26.718Z,13.55
2022-08-28T02:59:49.638Z,14.32
2022-08-28T03:00:15.634Z,13.75
2022-08-28T03:00:38.812Z,14.55
2022-08-28T03:01:01.964Z,14.82
2022-08-28T03:01:25.085Z,14.15
2022-08-28T03:01:48.778Z,14.10
2022-08-28T03:02:11.813Z,14.75
2022-08-28T03:02:34.795Z,14.30
2022-08-28T03:02:57.793Z,14.02
2022-08-28T03:03:21.225Z,14.70
2022-08-28T03:03:43.992Z,14.40
2022-08-28T03:04:06.987Z,14.00
2022-08-28T03:04:30.145Z,13.48
2022-08-28T03:04:53.047Z,14.02
2022-08-28T03:05:17.852Z,14.18
2022-08-28T03:05:40.892Z,13.43
2022-08-28T03:06:04.058Z,13.38
2022-08-28T03:06:27.058Z,13.10
2022-08-28T03:06:50.772Z,12.85
2022-08-28T03:07:13.829Z,12.97
2022-08-28T03:07:36.849Z,13.30
2022-08-28T03:07:59.663Z,13.40
2022-08-28T03:08:22.776Z,12.80
2022-08-28T03:08:50.262Z,12.38
2022-08-28T03:09:13.353Z,13.40
2022-08-28T03:09:36.313Z,13.27
2022-08-28T03:09:59.412Z,12.63
2022-08-28T03:10:22.971Z,12.90
2022-08-28T03:10:47.308Z,13.02
2022-08-28T03:11:13.268Z,12.73
2022-08-28T03:11:37.205Z,12.48
2022-08-28T03:12:00.147Z,12.60
2022-08-28T03:12:24.536Z,12.63
2022-08-28T03:12:48.547Z,12.65
2022-08-28T03:13:11.331Z,12.27
2022-08-28T03:13:48.146Z,12.32
2022-08-28T03:14:13.576Z,12.20
2022-08-28T03:14:36.684Z,12.00
2022-08-28T03:15:02.303Z,12.00
2022-08-28T03:15:25.204Z,12.02
2022-08-28T03:15:48.048Z,12.60
2022-08-28T03:16:14.874Z,12.23
2022-08-28T03:16:40.646Z,12.38
2022-08-28T03:17:03.812Z,12.13
2022-08-28T03:17:27.587Z,12.45
2022-08-28T03:17:50.608Z,12.50
2022-08-28T03:18:14.011Z,12.30
2022-08-28T03:18:37.323Z,12.43
2022-08-28T03:19:00.429Z,12.40
2022-08-28T03:19:24.744Z,11.95
2022-08-28T03:19:50.357Z,12.70
2022-08-28T03:20:13.890Z,12.50
2022-08-28T03:20:36.792Z,12.25
2022-08-28T03:21:00.120Z,11.80
2022-08-28T03:21:22.826Z,12.10
2022-08-28T03:21:45.684Z,11.98
2022-08-28T03:22:08.601Z,12.15
2022-08-28T03:22:50.142Z,12.00
2022-08-28T03:23:28.290Z,11.88
2022-08-28T03:23:51.346Z,11.98
2022-08-28T03:24:15.674Z,12.20
2022-08-28T03:24:38.777Z,11.98
2022-08-28T03:25:01.796Z,11.90
2022-08-28T03:25:25.056Z,12.10
2022-08-28T03:25:50.692Z,12.00
2022-08-28T03:26:15.780Z,11.57
2022-08-28T03:26:38.803Z,11.82
2022-08-28T03:27:01.986Z,11.77
2022-08-28T03:27:24.798Z,11.93
2022-08-28T03:27:47.967Z,11.55
2022-08-28T03:28:10.851Z,11.95
2022-08-28T03:28:34.678Z,12.85
2022-08-28T03:28:59.707Z,12.80
2022-08-28T03:29:23.445Z,12.13
2022-08-28T03:29:46.451Z,11.80
2022-08-28T03:30:10.411Z,12.50
2022-08-28T03:30:33.309Z,11.82
2022-08-28T03:30:56.342Z,11.65
2022-08-28T03:31:20.766Z,11.77
2022-08-28T03:31:46.469Z,11.95
2022-08-28T03:32:09.299Z,11.50
2022-08-28T03:32:32.244Z,11.02
2022-08-28T03:32:55.303Z,11.48
2022-08-28T03:33:18.179Z,11.77
2022-08-28T03:33:42.675Z,11.40
2022-08-28T03:34:05.754Z,11.65
2022-08-28T03:34:28.631Z,11.23
2022-08-28T03:34:54.621Z,11.32
2022-08-28T03:35:17.561Z,11.07
2022-08-28T03:35:41.032Z,11.20
2022-08-28T03:36:04.633Z,11.52
2022-08-28T03:36:28.471Z,11.40
2022-08-28T03:36:51.737Z,11.00
2022-08-28T03:37:14.502Z,10.93
2022-08-28T03:37:37.488Z,10.68
2022-08-28T03:38:00.412Z,10.80
2022-08-28T03:38:25.234Z,10.82
2022-08-28T03:38:48.692Z,11.27
2022-08-28T03:39:11.593Z,11.45
2022-08-28T03:39:34.507Z,11.57
2022-08-28T03:39:57.760Z,11.02
2022-08-28T03:40:21.703Z,11.75
2022-08-28T03:40:46.323Z,11.05
2022-08-28T03:41:12.206Z,11.30
2022-08-28T03:41:35.145Z,11.75
2022-08-28T03:41:58.135Z,11.50
2022-08-28T03:42:21.121Z,11.07
2022-08-28T03:42:44.052Z,11.23
2022-08-28T03:43:18.582Z,11.75
2022-08-28T03:43:41.416Z,11.57
2022-08-28T03:44:04.422Z,11.90
2022-08-28T03:44:27.354Z,11.73
2022-08-28T03:44:50.270Z,11.15
2022-08-28T03:45:13.225Z,11.55
2022-08-28T03:45:35.983Z,11.90
2022-08-28T03:46:00.235Z,11.32
2022-08-28T03:46:24.250Z,11.52
2022-08-28T03:46:47.263Z,11.30
2022-08-28T03:47:10.961Z,11.68
2022-08-28T03:47:35.580Z,12.02
2022-08-28T03:47:59.163Z,11.50
2022-08-28T03:48:24.543Z,11.77
2022-08-28T03:48:47.568Z,11.27
2022-08-28T03:49:10.480Z,11.23
2022-08-28T03:49:33.325Z,11.73
2022-08-28T03:49:56.681Z,11.83
2022-08-28T03:50:20.006Z,11.30
2022-08-28T03:50:43.081Z,11.13
2022-08-28T03:51:07.938Z,11.93
2022-08-28T03:51:31.982Z,11.48
2022-08-28T03:51:54.847Z,11.60
2022-08-28T03:52:17.692Z,11.75
2022-08-28T03:52:41.170Z,11.88
2022-08-28T03:53:04.474Z,11.45
2022-08-28T03:53:29.209Z,11.68
2022-08-28T03:53:52.914Z,11.45
2022-08-28T03:54:15.875Z,11.23
2022-08-28T03:54:38.803Z,11.52
2022-08-28T03:55:03.436Z,10.85
2022-08-28T03:55:26.955Z,11.27
2022-08-28T03:55:49.748Z,11.20
2022-08-28T03:56:19.132Z,11.27
2022-08-28T03:56:42.454Z,11.40
2022-08-28T03:57:05.659Z,11.60
2022-08-28T03:57:28.630Z,11.07
2022-08-28T03:57:51.928Z,11.07
2022-08-28T03:58:19.118Z,11.30
2022-08-28T03:58:42.324Z,11.00
2022-08-28T03:59:05.761Z,10.80
2022-08-28T03:59:31.700Z,11.60
2022-08-28T03:59:56.693Z,11.38
2022-08-28T04:00:20.605Z,11.40
2022-08-28T04:00:43.491Z,11.63
2022-08-28T04:01:08.483Z,12.82
2022-08-28T04:01:33.818Z,13.00
2022-08-28T04:01:57.011Z,12.77
2022-08-28T04:02:20.721Z,13.13
2022-08-28T04:02:44.014Z,13.05
2022-08-28T04:03:07.156Z,14.57
2022-08-28T04:03:30.342Z,16.65
2022-08-28T04:03:53.264Z,16.52
2022-08-28T04:04:16.094Z,17.38
2022-08-28T04:04:39.603Z,17.45
2022-08-28T04:05:02.487Z,17.88
2022-08-28T04:05:25.412Z,18.17
2022-08-28T04:05:48.330Z,19.15
2022-08-28T04:06:11.340Z,19.92
2022-08-28T04:06:34.253Z,20.73
2022-08-28T04:06:59.633Z,20.60
2022-08-28T04:07:22.777Z,20.15
2022-08-28T04:07:45.852Z,21.95
2022-08-28T04:08:09.300Z,23.08
2022-08-28T04:08:32.221Z,22.67
2022-08-28T04:08:55.594Z,24.02
2022-08-28T04:09:23.297Z,21.10
2022-08-28T04:09:46.308Z,20.90
2022-08-28T04:10:10.253Z,21.27
2022-08-28T04:10:33.234Z,20.83
2022-08-28T04:10:56.098Z,21.20
2022-08-28T04:11:20.867Z,21.40
2022-08-28T04:11:44.253Z,21.52
2022-08-28T04:12:08.611Z,23.58
2022-08-28T04:12:35.350Z,23.75
2022-08-28T04:12:58.434Z,22.02
2022-08-28T04:13:21.693Z,22.00
2022-08-28T04:13:44.621Z,22.38
2022-08-28T04:14:08.133Z,22.08
2022-08-28T04:14:31.010Z,21.90
2022-08-28T04:14:54.642Z,23.48
2022-08-28T04:15:17.911Z,23.45
2022-08-28T04:15:41.739Z,24.98
2022-08-28T04:16:10.991Z,22.55
2022-08-28T04:16:37.035Z,24.17
2022-08-28T04:17:01.601Z,23.02
2022-08-28T04:17:25.677Z,25.13
2022-08-28T04:17:48.678Z,24.35
2022-08-28T04:18:11.608Z,24.98
2022-08-28T04:18:35.740Z,26.27
2022-08-28T04:18:58.637Z,26.48
2022-08-28T04:19:21.840Z,26.30
2022-08-28T04:19:45.566Z,26.23
2022-08-28T04:20:11.090Z,25.60
2022-08-28T04:20:38.886Z,25.25
2022-08-28T04:21:02.643Z,27.85
2022-08-28T04:21:26.333Z,28.02
2022-08-28T04:21:49.533Z,27.10
2022-08-28T04:22:12.484Z,25.40
2022-08-28T04:22:37.376Z,23.42
2022-08-28T04:23:03.585Z,23.80
2022-08-28T04:23:26.910Z,25.45
2022-08-28T04:23:49.853Z,26.55
2022-08-28T04:24:13.374Z,28.95
2022-08-28T04:24:37.866Z,28.23
2022-08-28T04:25:01.022Z,23.10
2022-08-28T04:25:24.249Z,26.08
2022-08-28T04:25:48.543Z,30.58
2022-08-28T04:26:12.286Z,26.63
2022-08-28T04:26:37.119Z,26.38
2022-08-28T04:27:00.049Z,28.63
2022-08-28T04:27:22.968Z,32.38
2022-08-28T04:27:45.889Z,25.45
2022-08-28T04:28:08.854Z,23.40
2022-08-28T04:28:32.861Z,25.38
2022-08-28T04:28:56.033Z,27.38
2022-08-28T04:29:19.386Z,25.33
2022-08-28T04:29:42.284Z,27.95
2022-08-28T04:30:06.888Z,31.95
2022-08-28T04:30:32.888Z,29.08
2022-08-28T04:30:55.868Z,28.83
2022-08-28T04:31:18.897Z,27.58
2022-08-28T04:31:55.159Z,27.33
2022-08-28T04:32:18.333Z,25.42
2022-08-28T04:32:41.213Z,27.52
2022-08-28T04:33:06.328Z,26.67
2022-08-28T04:33:29.378Z,27.05
2022-08-28T04:33:52.265Z,27.25
2022-08-28T04:34:15.121Z,28.13
2022-08-28T04:34:38.620Z,27.13
2022-08-28T04:35:01.416Z,24.42
2022-08-28T04:35:24.712Z,26.25
2022-08-28T04:35:47.616Z,25.88
2022-08-28T04:36:12.256Z,26.10
2022-08-28T04:36:35.755Z,25.35
2022-08-28T04:36:59.111Z,26.55
2022-08-28T04:37:22.932Z,24.63
2022-08-28T04:37:51.102Z,23.25
2022-08-28T04:38:14.139Z,22.33
2022-08-28T04:38:41.591Z,26.85
2022-08-28T04:39:08.781Z,27.50
2022-08-28T04:39:31.959Z,25.10
2022-08-28T04:39:57.348Z,26.50
2022-08-28T04:40:20.289Z,24.45
2022-08-28T04:40:43.405Z,25.55
2022-08-28T04:41:06.791Z,23.90
2022-08-28T04:41:30.170Z,25.92
2022-08-28T04:41:57.179Z,24.35
2022-08-28T04:42:20.149Z,24.77
2022-08-28T04:42:45.221Z,26.65
2022-08-28T04:43:08.284Z,25.33
2022-08-28T04:43:31.252Z,24.27
2022-08-28T04:43:56.693Z,23.95
2022-08-28T04:44:22.313Z,23.08
2022-08-28T04:44:45.209Z,24.17
2022-08-28T04:45:08.701Z,24.10
2022-08-28T04:45:31.667Z,23.98
2022-08-28T04:45:54.595Z,24.55
2022-08-28T04:46:17.525Z,24.83
2022-08-28T04:46:40.776Z,28.17
2022-08-28T04:47:03.668Z,28.10
2022-08-28T04:47:29.657Z,28.42
2022-08-28T04:47:53.257Z,32.88
2022-08-28T04:48:19.287Z,27.13
2022-08-28T04:48:42.514Z,25.52
2022-08-28T04:49:06.125Z,26.15
2022-08-28T04:49:29.190Z,27.38
2022-08-28T04:49:52.185Z,26.90
2022-08-28T04:50:14.941Z,27.60
2022-08-28T04:50:41.165Z,25.67
2022-08-28T04:51:05.832Z,25.90
2022-08-28T04:51:28.732Z,24.88
2022-08-28T04:51:51.671Z,24.65
2022-08-28T04:52:14.795Z,24.08
2022-08-28T04:52:37.694Z,24.58
2022-08-28T04:53:00.544Z,24.40
2022-08-28T04:53:25.964Z,24.00
2022-08-28T04:53:48.739Z,24.70
2022-08-28T04:54:11.798Z,24.33
2022-08-28T04:54:34.782Z,24.35
2022-08-28T04:54:58.013Z,23.75
2022-08-28T04:55:27.862Z,22.85
2022-08-28T04:56:07.271Z,24.85
2022-08-28T04:56:30.187Z,27.60
2022-08-28T04:56:53.072Z,28.63
2022-08-28T04:57:17.848Z,27.83
2022-08-28T04:57:40.738Z,24.48
2022-08-28T04:58:03.730Z,24.00
2022-08-28T04:58:26.623Z,24.13
2022-08-28T04:58:49.851Z,24.58
2022-08-28T04:59:13.011Z,24.45
2022-08-28T04:59:35.891Z,24.48
2022-08-28T04:59:58.966Z,23.80
2022-08-28T05:00:23.941Z,23.13
2022-08-28T05:00:47.824Z,23.75
2022-08-28T05:01:15.633Z,24.02
2022-08-28T05:01:40.049Z,23.00
2022-08-28T05:02:03.000Z,22.85
2022-08-28T05:02:26.883Z,23.42
2022-08-28T05:02:50.340Z,23.73
2022-08-28T05:03:13.340Z,22.45
2022-08-28T05:03:36.375Z,22.75
2022-08-28T05:04:00.426Z,22.77
2022-08-28T05:04:23.460Z,23.60
2022-08-28T05:04:47.005Z,23.95
2022-08-28T05:05:11.905Z,23.48
2022-08-28T05:05:35.240Z,22.83
2022-08-28T05:05:58.160Z,23.55
2022-08-28T05:06:23.271Z,23.95
2022-08-28T05:06:46.720Z,23.10
2022-08-28T05:07:09.647Z,22.55
2022-08-28T05:07:35.246Z,22.70
2022-08-28T05:07:58.166Z,22.50
2022-08-28T05:08:23.760Z,22.20
2022-08-28T05:08:46.715Z,22.08
2022-08-28T05:09:14.694Z,21.77
2022-08-28T05:09:38.209Z,21.50
2022-08-28T05:10:00.912Z,21.48
2022-08-28T05:10:24.079Z,22.33
2022-08-28T05:10:47.284Z,21.13
2022-08-28T05:11:11.254Z,21.20
2022-08-28T05:11:35.206Z,22.00
2022-08-28T05:12:01.480Z,22.95
2022-08-28T05:12:26.002Z,21.95
2022-08-28T05:12:49.028Z,21.52
2022-08-28T05:13:12.424Z,21.45
2022-08-28T05:13:35.295Z,22.05
2022-08-28T05:13:58.143Z,23.00
2022-08-28T05:14:22.023Z,23.15
2022-08-28T05:14:45.029Z,22.02